sensor_id;sensor_type;location;lat;lon;timestamp;P1;durP1;ratioP1;P2;durP2;ratioP2
28625;SDS011;18905;42.668;23.364;2023-04-15T00:01:03;6.68;;;2.15;;
28625;SDS011;18905;42.668;23.364;2023-04-15T00:03:32;5.90;;;2.40;;
28625;SDS011;18905;42.668;23.364;2023-04-15T00:05:58;3.55;;;2.05;;
28625;SDS011;18905;42.668;23.364;2023-04-15T00:08:27;5.53;;;2.38;;
28625;SDS011;18905;42.668;23.364;2023-04-15T00:10:58;4.82;;;2.38;;
28625;SDS011;18905;42.668;23.364;2023-04-15T00:13:27;4.57;;;2.70;;
28625;SDS011;18905;42.668;23.364;2023-04-15T00:15:58;5.95;;;3.33;;
28625;SDS011;18905;42.668;23.364;2023-04-15T00:18:28;4.95;;;2.58;;
28625;SDS011;18905;42.668;23.364;2023-04-15T00:20:59;6.07;;;2.63;;
28625;SDS011;18905;42.668;23.364;2023-04-15T00:23:26;5.60;;;2.83;;
28625;SDS011;18905;42.668;23.364;2023-04-15T00:25:54;9.00;;;2.50;;
28625;SDS011;18905;42.668;23.364;2023-04-15T00:28:20;6.25;;;2.67;;
28625;SDS011;18905;42.668;23.364;2023-04-15T00:30:49;5.05;;;3.13;;
28625;SDS011;18905;42.668;23.364;2023-04-15T00:33:15;7.43;;;2.92;;
28625;SDS011;18905;42.668;23.364;2023-04-15T00:35:42;10.48;;;3.10;;
28625;SDS011;18905;42.668;23.364;2023-04-15T00:38:11;7.70;;;3.05;;
28625;SDS011;18905;42.668;23.364;2023-04-15T00:40:37;9.85;;;3.70;;
28625;SDS011;18905;42.668;23.364;2023-04-15T00:43:03;7.35;;;3.20;;
28625;SDS011;18905;42.668;23.364;2023-04-15T00:45:29;7.35;;;2.95;;
28625;SDS011;18905;42.668;23.364;2023-04-15T00:47:58;6.63;;;2.97;;
28625;SDS011;18905;42.668;23.364;2023-04-15T00:50:24;8.00;;;2.97;;
28625;SDS011;18905;42.668;23.364;2023-04-15T00:52:53;8.27;;;3.28;;
28625;SDS011;18905;42.668;23.364;2023-04-15T00:55:19;4.70;;;2.70;;
28625;SDS011;18905;42.668;23.364;2023-04-15T00:57:54;10.60;;;3.47;;
28625;SDS011;18905;42.668;23.364;2023-04-15T01:00:21;6.18;;;3.35;;
28625;SDS011;18905;42.668;23.364;2023-04-15T01:02:47;6.03;;;3.13;;
28625;SDS011;18905;42.668;23.364;2023-04-15T01:05:14;6.63;;;3.45;;
28625;SDS011;18905;42.668;23.364;2023-04-15T01:07:43;9.07;;;3.83;;
28625;SDS011;18905;42.668;23.364;2023-04-15T01:10:09;10.75;;;5.10;;
28625;SDS011;18905;42.668;23.364;2023-04-15T01:12:37;11.13;;;4.10;;
28625;SDS011;18905;42.668;23.364;2023-04-15T01:15:07;10.15;;;4.47;;
28625;SDS011;18905;42.668;23.364;2023-04-15T01:17:35;12.35;;;5.78;;
28625;SDS011;18905;42.668;23.364;2023-04-15T01:20:04;9.70;;;4.85;;
28625;SDS011;18905;42.668;23.364;2023-04-15T01:22:35;9.32;;;4.55;;
28625;SDS011;18905;42.668;23.364;2023-04-15T01:25:11;9.55;;;4.45;;
28625;SDS011;18905;42.668;23.364;2023-04-15T01:27:42;13.15;;;5.03;;
28625;SDS011;18905;42.668;23.364;2023-04-15T01:30:11;7.95;;;3.90;;
28625;SDS011;18905;42.668;23.364;2023-04-15T01:32:37;10.15;;;4.60;;
28625;SDS011;18905;42.668;23.364;2023-04-15T01:35:06;10.13;;;4.82;;
28625;SDS011;18905;42.668;23.364;2023-04-15T01:37:35;6.50;;;4.32;;
28625;SDS011;18905;42.668;23.364;2023-04-15T01:40:05;8.25;;;3.70;;
28625;SDS011;18905;42.668;23.364;2023-04-15T01:42:33;10.02;;;4.60;;
28625;SDS011;18905;42.668;23.364;2023-04-15T01:45:01;10.55;;;3.95;;
28625;SDS011;18905;42.668;23.364;2023-04-15T01:47:34;5.93;;;3.17;;
28625;SDS011;18905;42.668;23.364;2023-04-15T01:50:03;7.47;;;2.97;;
28625;SDS011;18905;42.668;23.364;2023-04-15T01:52:32;6.35;;;3.13;;
28625;SDS011;18905;42.668;23.364;2023-04-15T01:54:59;11.75;;;3.67;;
28625;SDS011;18905;42.668;23.364;2023-04-15T01:57:24;6.53;;;3.40;;
28625;SDS011;18905;42.668;23.364;2023-04-15T01:59:53;6.32;;;3.75;;
28625;SDS011;18905;42.668;23.364;2023-04-15T02:02:20;8.30;;;3.35;;
28625;SDS011;18905;42.668;23.364;2023-04-15T02:04:46;9.93;;;3.78;;
28625;SDS011;18905;42.668;23.364;2023-04-15T02:07:14;7.45;;;3.67;;
28625;SDS011;18905;42.668;23.364;2023-04-15T02:09:43;10.90;;;4.32;;
28625;SDS011;18905;42.668;23.364;2023-04-15T02:12:12;10.60;;;4.15;;
28625;SDS011;18905;42.668;23.364;2023-04-15T02:14:38;7.57;;;3.28;;
28625;SDS011;18905;42.668;23.364;2023-04-15T02:17:04;6.72;;;3.90;;
28625;SDS011;18905;42.668;23.364;2023-04-15T02:19:33;7.28;;;3.47;;
28625;SDS011;18905;42.668;23.364;2023-04-15T02:22:03;8.27;;;4.10;;
28625;SDS011;18905;42.668;23.364;2023-04-15T02:24:34;8.43;;;3.85;;
28625;SDS011;18905;42.668;23.364;2023-04-15T02:27:00;8.02;;;3.63;;
28625;SDS011;18905;42.668;23.364;2023-04-15T02:29:27;5.95;;;3.35;;
28625;SDS011;18905;42.668;23.364;2023-04-15T02:32:00;8.43;;;3.78;;
28625;SDS011;18905;42.668;23.364;2023-04-15T02:34:30;6.47;;;3.30;;
28625;SDS011;18905;42.668;23.364;2023-04-15T02:37:02;7.50;;;3.88;;
28625;SDS011;18905;42.668;23.364;2023-04-15T02:39:36;7.35;;;3.70;;
28625;SDS011;18905;42.668;23.364;2023-04-15T02:42:02;6.28;;;3.53;;
28625;SDS011;18905;42.668;23.364;2023-04-15T02:44:31;6.95;;;3.97;;
28625;SDS011;18905;42.668;23.364;2023-04-15T02:47:00;8.68;;;3.80;;
28625;SDS011;18905;42.668;23.364;2023-04-15T02:49:27;4.95;;;3.13;;
28625;SDS011;18905;42.668;23.364;2023-04-15T02:51:55;5.93;;;3.20;;
28625;SDS011;18905;42.668;23.364;2023-04-15T02:54:22;9.57;;;3.55;;
28625;SDS011;18905;42.668;23.364;2023-04-15T02:56:53;7.63;;;3.33;;
28625;SDS011;18905;42.668;23.364;2023-04-15T02:59:25;7.57;;;3.30;;
28625;SDS011;18905;42.668;23.364;2023-04-15T03:01:51;9.32;;;5.25;;
28625;SDS011;18905;42.668;23.364;2023-04-15T03:04:19;10.30;;;5.82;;
28625;SDS011;18905;42.668;23.364;2023-04-15T03:06:50;14.27;;;6.53;;
28625;SDS011;18905;42.668;23.364;2023-04-15T03:09:17;11.77;;;6.88;;
28625;SDS011;18905;42.668;23.364;2023-04-15T03:11:45;14.85;;;7.43;;
28625;SDS011;18905;42.668;23.364;2023-04-15T03:14:11;15.65;;;7.65;;
28625;SDS011;18905;42.668;23.364;2023-04-15T03:16:41;11.98;;;7.30;;
28625;SDS011;18905;42.668;23.364;2023-04-15T03:19:07;12.43;;;7.70;;
28625;SDS011;18905;42.668;23.364;2023-04-15T03:21:34;12.00;;;6.63;;
28625;SDS011;18905;42.668;23.364;2023-04-15T03:24:03;11.50;;;6.60;;
28625;SDS011;18905;42.668;23.364;2023-04-15T03:26:30;15.98;;;6.47;;
28625;SDS011;18905;42.668;23.364;2023-04-15T03:28:59;10.40;;;5.80;;
28625;SDS011;18905;42.668;23.364;2023-04-15T03:31:30;11.77;;;6.55;;
28625;SDS011;18905;42.668;23.364;2023-04-15T03:33:56;11.45;;;6.10;;
28625;SDS011;18905;42.668;23.364;2023-04-15T03:36:25;15.93;;;6.18;;
28625;SDS011;18905;42.668;23.364;2023-04-15T03:38:53;9.65;;;6.03;;
28625;SDS011;18905;42.668;23.364;2023-04-15T03:41:20;10.70;;;6.10;;
28625;SDS011;18905;42.668;23.364;2023-04-15T03:43:52;10.80;;;5.35;;
28625;SDS011;18905;42.668;23.364;2023-04-15T03:46:21;11.25;;;6.20;;
28625;SDS011;18905;42.668;23.364;2023-04-15T03:48:47;13.27;;;5.85;;
28625;SDS011;18905;42.668;23.364;2023-04-15T03:51:13;10.63;;;5.63;;
28625;SDS011;18905;42.668;23.364;2023-04-15T03:53:44;10.40;;;5.93;;
28625;SDS011;18905;42.668;23.364;2023-04-15T03:56:10;11.07;;;5.63;;
28625;SDS011;18905;42.668;23.364;2023-04-15T03:58:36;9.80;;;5.95;;
28625;SDS011;18905;42.668;23.364;2023-04-15T04:01:03;11.35;;;5.30;;
28625;SDS011;18905;42.668;23.364;2023-04-15T04:03:32;8.90;;;5.07;;
28625;SDS011;18905;42.668;23.364;2023-04-15T04:05:58;9.45;;;4.85;;
28625;SDS011;18905;42.668;23.364;2023-04-15T04:08:24;11.40;;;5.80;;
28625;SDS011;18905;42.668;23.364;2023-04-15T04:10:51;9.75;;;5.82;;
28625;SDS011;18905;42.668;23.364;2023-04-15T04:13:17;9.27;;;5.18;;
28625;SDS011;18905;42.668;23.364;2023-04-15T04:15:43;12.00;;;6.90;;
28625;SDS011;18905;42.668;23.364;2023-04-15T04:18:10;12.10;;;6.80;;
28625;SDS011;18905;42.668;23.364;2023-04-15T04:20:36;9.75;;;5.78;;
28625;SDS011;18905;42.668;23.364;2023-04-15T04:23:05;11.05;;;5.93;;
28625;SDS011;18905;42.668;23.364;2023-04-15T04:25:32;9.52;;;6.18;;
28625;SDS011;18905;42.668;23.364;2023-04-15T04:27:58;9.98;;;5.65;;
28625;SDS011;18905;42.668;23.364;2023-04-15T04:30:27;11.48;;;5.93;;
28625;SDS011;18905;42.668;23.364;2023-04-15T04:32:53;9.88;;;5.20;;
28625;SDS011;18905;42.668;23.364;2023-04-15T04:35:18;10.23;;;5.60;;
28625;SDS011;18905;42.668;23.364;2023-04-15T04:37:44;12.98;;;5.68;;
28625;SDS011;18905;42.668;23.364;2023-04-15T04:40:10;10.13;;;5.57;;
28625;SDS011;18905;42.668;23.364;2023-04-15T04:42:36;9.43;;;5.40;;
28625;SDS011;18905;42.668;23.364;2023-04-15T04:45:01;9.50;;;5.65;;
28625;SDS011;18905;42.668;23.364;2023-04-15T04:47:27;13.10;;;5.80;;
28625;SDS011;18905;42.668;23.364;2023-04-15T04:49:52;13.30;;;6.10;;
28625;SDS011;18905;42.668;23.364;2023-04-15T04:52:17;11.05;;;5.95;;
28625;SDS011;18905;42.668;23.364;2023-04-15T04:54:43;11.45;;;6.55;;
28625;SDS011;18905;42.668;23.364;2023-04-15T04:57:08;10.65;;;6.40;;
28625;SDS011;18905;42.668;23.364;2023-04-15T04:59:34;11.82;;;7.13;;
28625;SDS011;18905;42.668;23.364;2023-04-15T05:01:59;8.55;;;5.70;;
28625;SDS011;18905;42.668;23.364;2023-04-15T05:04:25;9.05;;;6.25;;
28625;SDS011;18905;42.668;23.364;2023-04-15T05:06:50;11.45;;;6.13;;
28625;SDS011;18905;42.668;23.364;2023-04-15T05:09:16;15.00;;;6.05;;
28625;SDS011;18905;42.668;23.364;2023-04-15T05:11:41;11.35;;;5.72;;
28625;SDS011;18905;42.668;23.364;2023-04-15T05:14:06;8.98;;;5.40;;
28625;SDS011;18905;42.668;23.364;2023-04-15T05:16:32;11.40;;;5.63;;
28625;SDS011;18905;42.668;23.364;2023-04-15T05:18:57;11.23;;;5.78;;
28625;SDS011;18905;42.668;23.364;2023-04-15T05:21:23;9.20;;;5.28;;
28625;SDS011;18905;42.668;23.364;2023-04-15T05:23:50;9.02;;;5.43;;
28625;SDS011;18905;42.668;23.364;2023-04-15T05:26:15;12.10;;;5.20;;
28625;SDS011;18905;42.668;23.364;2023-04-15T05:28:41;12.07;;;5.75;;
28625;SDS011;18905;42.668;23.364;2023-04-15T05:31:07;8.75;;;5.85;;
28625;SDS011;18905;42.668;23.364;2023-04-15T05:33:32;11.70;;;7.20;;
28625;SDS011;18905;42.668;23.364;2023-04-15T05:35:58;13.45;;;7.40;;
28625;SDS011;18905;42.668;23.364;2023-04-15T05:38:23;13.93;;;6.32;;
28625;SDS011;18905;42.668;23.364;2023-04-15T05:40:48;11.32;;;6.07;;
28625;SDS011;18905;42.668;23.364;2023-04-15T05:43:14;10.38;;;5.60;;
28625;SDS011;18905;42.668;23.364;2023-04-15T05:45:39;9.95;;;5.78;;
28625;SDS011;18905;42.668;23.364;2023-04-15T05:48:05;11.20;;;4.88;;
28625;SDS011;18905;42.668;23.364;2023-04-15T05:50:31;12.32;;;4.55;;
28625;SDS011;18905;42.668;23.364;2023-04-15T05:52:56;7.90;;;4.70;;
28625;SDS011;18905;42.668;23.364;2023-04-15T05:55:22;9.13;;;4.75;;
28625;SDS011;18905;42.668;23.364;2023-04-15T05:57:47;7.10;;;4.00;;
28625;SDS011;18905;42.668;23.364;2023-04-15T06:00:13;7.25;;;4.28;;
28625;SDS011;18905;42.668;23.364;2023-04-15T06:02:39;7.20;;;4.15;;
28625;SDS011;18905;42.668;23.364;2023-04-15T06:05:05;9.75;;;4.55;;
28625;SDS011;18905;42.668;23.364;2023-04-15T06:07:34;8.25;;;4.43;;
28625;SDS011;18905;42.668;23.364;2023-04-15T06:10:01;8.45;;;4.80;;
28625;SDS011;18905;42.668;23.364;2023-04-15T06:12:27;12.30;;;4.85;;
28625;SDS011;18905;42.668;23.364;2023-04-15T06:14:52;10.27;;;4.60;;
28625;SDS011;18905;42.668;23.364;2023-04-15T06:17:18;11.30;;;5.05;;
28625;SDS011;18905;42.668;23.364;2023-04-15T06:19:43;10.50;;;4.15;;
28625;SDS011;18905;42.668;23.364;2023-04-15T06:22:09;8.38;;;4.30;;
28625;SDS011;18905;42.668;23.364;2023-04-15T06:24:34;6.90;;;4.10;;
28625;SDS011;18905;42.668;23.364;2023-04-15T06:27:01;8.98;;;4.20;;
28625;SDS011;18905;42.668;23.364;2023-04-15T06:29:27;8.60;;;3.97;;
28625;SDS011;18905;42.668;23.364;2023-04-15T06:31:52;9.50;;;3.75;;
28625;SDS011;18905;42.668;23.364;2023-04-15T06:34:18;7.55;;;4.13;;
28625;SDS011;18905;42.668;23.364;2023-04-15T06:36:43;7.97;;;3.58;;
28625;SDS011;18905;42.668;23.364;2023-04-15T06:39:09;9.88;;;3.60;;
28625;SDS011;18905;42.668;23.364;2023-04-15T06:41:35;10.43;;;3.40;;
28625;SDS011;18905;42.668;23.364;2023-04-15T06:44:00;11.57;;;4.28;;
28625;SDS011;18905;42.668;23.364;2023-04-15T06:46:26;7.18;;;3.63;;
28625;SDS011;18905;42.668;23.364;2023-04-15T06:48:51;11.55;;;3.88;;
28625;SDS011;18905;42.668;23.364;2023-04-15T06:51:17;7.45;;;3.80;;
28625;SDS011;18905;42.668;23.364;2023-04-15T06:53:43;8.10;;;4.22;;
28625;SDS011;18905;42.668;23.364;2023-04-15T06:56:09;7.70;;;3.67;;
28625;SDS011;18905;42.668;23.364;2023-04-15T06:58:34;6.88;;;3.75;;
28625;SDS011;18905;42.668;23.364;2023-04-15T07:01:00;8.85;;;3.83;;
28625;SDS011;18905;42.668;23.364;2023-04-15T07:03:26;7.07;;;3.90;;
28625;SDS011;18905;42.668;23.364;2023-04-15T07:05:51;11.32;;;4.00;;
28625;SDS011;18905;42.668;23.364;2023-04-15T07:08:18;6.18;;;4.00;;
28625;SDS011;18905;42.668;23.364;2023-04-15T07:10:44;8.77;;;3.88;;
28625;SDS011;18905;42.668;23.364;2023-04-15T07:13:11;9.82;;;3.80;;
28625;SDS011;18905;42.668;23.364;2023-04-15T07:15:36;9.95;;;4.05;;
28625;SDS011;18905;42.668;23.364;2023-04-15T07:18:02;10.57;;;4.38;;
28625;SDS011;18905;42.668;23.364;2023-04-15T07:20:27;10.23;;;4.13;;
28625;SDS011;18905;42.668;23.364;2023-04-15T07:22:53;9.82;;;3.90;;
28625;SDS011;18905;42.668;23.364;2023-04-15T07:25:19;9.50;;;3.90;;
28625;SDS011;18905;42.668;23.364;2023-04-15T07:27:44;9.10;;;3.60;;
28625;SDS011;18905;42.668;23.364;2023-04-15T07:30:10;6.75;;;3.72;;
28625;SDS011;18905;42.668;23.364;2023-04-15T07:32:36;11.68;;;4.00;;
28625;SDS011;18905;42.668;23.364;2023-04-15T07:35:02;10.95;;;3.33;;
28625;SDS011;18905;42.668;23.364;2023-04-15T07:37:28;8.15;;;3.55;;
28625;SDS011;18905;42.668;23.364;2023-04-15T07:39:54;6.70;;;3.47;;
28625;SDS011;18905;42.668;23.364;2023-04-15T07:42:19;10.48;;;3.97;;
28625;SDS011;18905;42.668;23.364;2023-04-15T07:44:45;10.93;;;3.97;;
28625;SDS011;18905;42.668;23.364;2023-04-15T07:47:10;8.15;;;3.35;;
28625;SDS011;18905;42.668;23.364;2023-04-15T07:49:36;6.68;;;3.60;;
28625;SDS011;18905;42.668;23.364;2023-04-15T07:52:02;8.27;;;3.67;;
28625;SDS011;18905;42.668;23.364;2023-04-15T07:54:27;9.75;;;3.97;;
28625;SDS011;18905;42.668;23.364;2023-04-15T07:56:53;12.48;;;3.75;;
28625;SDS011;18905;42.668;23.364;2023-04-15T07:59:19;9.90;;;3.92;;
28625;SDS011;18905;42.668;23.364;2023-04-15T08:01:44;7.72;;;3.08;;
28625;SDS011;18905;42.668;23.364;2023-04-15T08:04:10;10.48;;;3.35;;
28625;SDS011;18905;42.668;23.364;2023-04-15T08:06:35;6.70;;;3.80;;
28625;SDS011;18905;42.668;23.364;2023-04-15T08:09:03;9.02;;;3.83;;
28625;SDS011;18905;42.668;23.364;2023-04-15T08:11:29;7.75;;;3.90;;
28625;SDS011;18905;42.668;23.364;2023-04-15T08:13:55;9.45;;;4.40;;
28625;SDS011;18905;42.668;23.364;2023-04-15T08:16:21;9.90;;;4.20;;
28625;SDS011;18905;42.668;23.364;2023-04-15T08:18:49;10.50;;;4.35;;
28625;SDS011;18905;42.668;23.364;2023-04-15T08:21:16;6.05;;;3.25;;
28625;SDS011;18905;42.668;23.364;2023-04-15T08:23:43;15.48;;;4.18;;
28625;SDS011;18905;42.668;23.364;2023-04-15T08:26:10;9.20;;;3.22;;
28625;SDS011;18905;42.668;23.364;2023-04-15T08:28:37;7.85;;;3.45;;
28625;SDS011;18905;42.668;23.364;2023-04-15T08:31:03;6.72;;;3.13;;
28625;SDS011;18905;42.668;23.364;2023-04-15T08:33:29;11.18;;;3.22;;
28625;SDS011;18905;42.668;23.364;2023-04-15T08:35:54;8.98;;;3.30;;
28625;SDS011;18905;42.668;23.364;2023-04-15T08:38:20;7.00;;;2.97;;
28625;SDS011;18905;42.668;23.364;2023-04-15T08:40:46;5.80;;;2.65;;
28625;SDS011;18905;42.668;23.364;2023-04-15T08:43:17;5.75;;;2.85;;
28625;SDS011;18905;42.668;23.364;2023-04-15T08:45:52;13.15;;;3.22;;
28625;SDS011;18905;42.668;23.364;2023-04-15T08:48:19;6.28;;;3.30;;
28625;SDS011;18905;42.668;23.364;2023-04-15T08:50:47;8.82;;;3.65;;
28625;SDS011;18905;42.668;23.364;2023-04-15T08:53:13;4.65;;;2.97;;
28625;SDS011;18905;42.668;23.364;2023-04-15T08:55:45;6.53;;;2.80;;
28625;SDS011;18905;42.668;23.364;2023-04-15T08:58:15;12.80;;;3.53;;
28625;SDS011;18905;42.668;23.364;2023-04-15T09:00:43;4.47;;;2.30;;
28625;SDS011;18905;42.668;23.364;2023-04-15T09:03:10;8.68;;;2.90;;
28625;SDS011;18905;42.668;23.364;2023-04-15T09:05:36;6.45;;;2.45;;
28625;SDS011;18905;42.668;23.364;2023-04-15T09:08:02;5.65;;;2.10;;
28625;SDS011;18905;42.668;23.364;2023-04-15T09:10:29;7.25;;;2.22;;
28625;SDS011;18905;42.668;23.364;2023-04-15T09:12:57;5.28;;;1.63;;
28625;SDS011;18905;42.668;23.364;2023-04-15T09:15:26;5.05;;;2.67;;
28625;SDS011;18905;42.668;23.364;2023-04-15T09:17:54;7.40;;;1.73;;
28625;SDS011;18905;42.668;23.364;2023-04-15T09:20:21;8.27;;;2.22;;
28625;SDS011;18905;42.668;23.364;2023-04-15T09:22:49;7.97;;;2.00;;
28625;SDS011;18905;42.668;23.364;2023-04-15T09:27:51;4.57;;;1.63;;
28625;SDS011;18905;42.668;23.364;2023-04-15T09:30:27;4.32;;;2.35;;
28625;SDS011;18905;42.668;23.364;2023-04-15T09:35:20;2.55;;;1.15;;
28625;SDS011;18905;42.668;23.364;2023-04-15T09:37:46;5.35;;;1.58;;
28625;SDS011;18905;42.668;23.364;2023-04-15T09:40:12;3.53;;;1.23;;
28625;SDS011;18905;42.668;23.364;2023-04-15T09:42:56;3.53;;;1.10;;
28625;SDS011;18905;42.668;23.364;2023-04-15T09:45:21;2.83;;;1.48;;
28625;SDS011;18905;42.668;23.364;2023-04-15T09:47:47;7.22;;;1.73;;
28625;SDS011;18905;42.668;23.364;2023-04-15T09:50:15;6.47;;;1.67;;
28625;SDS011;18905;42.668;23.364;2023-04-15T09:52:41;2.63;;;1.33;;
28625;SDS011;18905;42.668;23.364;2023-04-15T09:55:08;10.80;;;1.55;;
28625;SDS011;18905;42.668;23.364;2023-04-15T09:57:34;3.65;;;1.50;;
28625;SDS011;18905;42.668;23.364;2023-04-15T10:00:04;5.93;;;1.52;;
28625;SDS011;18905;42.668;23.364;2023-04-15T10:02:32;5.55;;;1.50;;
28625;SDS011;18905;42.668;23.364;2023-04-15T10:04:58;6.60;;;1.70;;
28625;SDS011;18905;42.668;23.364;2023-04-15T10:07:26;3.35;;;1.30;;
28625;SDS011;18905;42.668;23.364;2023-04-15T10:09:51;2.85;;;1.50;;
28625;SDS011;18905;42.668;23.364;2023-04-15T10:12:17;3.47;;;1.20;;
28625;SDS011;18905;42.668;23.364;2023-04-15T10:14:43;4.47;;;1.38;;
28625;SDS011;18905;42.668;23.364;2023-04-15T10:17:13;4.10;;;1.58;;
28625;SDS011;18905;42.668;23.364;2023-04-15T10:19:42;4.22;;;1.65;;
28625;SDS011;18905;42.668;23.364;2023-04-15T10:22:09;2.97;;;1.55;;
28625;SDS011;18905;42.668;23.364;2023-04-15T10:24:34;4.82;;;1.50;;
28625;SDS011;18905;42.668;23.364;2023-04-15T10:27:00;4.28;;;1.20;;
28625;SDS011;18905;42.668;23.364;2023-04-15T10:29:27;2.20;;;1.17;;
28625;SDS011;18905;42.668;23.364;2023-04-15T10:31:54;2.15;;;1.10;;
28625;SDS011;18905;42.668;23.364;2023-04-15T10:34:21;2.30;;;0.80;;
28625;SDS011;18905;42.668;23.364;2023-04-15T10:36:48;4.05;;;1.10;;
28625;SDS011;18905;42.668;23.364;2023-04-15T10:42:14;3.50;;;1.20;;
28625;SDS011;18905;42.668;23.364;2023-04-15T10:44:47;3.80;;;1.23;;
28625;SDS011;18905;42.668;23.364;2023-04-15T10:47:16;3.45;;;1.25;;
28625;SDS011;18905;42.668;23.364;2023-04-15T10:49:45;5.50;;;1.58;;
28625;SDS011;18905;42.668;23.364;2023-04-15T10:52:13;5.72;;;1.30;;
28625;SDS011;18905;42.668;23.364;2023-04-15T10:54:40;2.50;;;1.25;;
28625;SDS011;18905;42.668;23.364;2023-04-15T10:57:07;3.83;;;1.30;;
28625;SDS011;18905;42.668;23.364;2023-04-15T11:02:37;5.70;;;1.50;;
28625;SDS011;18905;42.668;23.364;2023-04-15T11:05:03;5.22;;;1.50;;
28625;SDS011;18905;42.668;23.364;2023-04-15T11:12:42;3.25;;;1.35;;
28625;SDS011;18905;42.668;23.364;2023-04-15T11:20:35;2.77;;;1.20;;
28625;SDS011;18905;42.668;23.364;2023-04-15T11:23:01;3.38;;;1.13;;
28625;SDS011;18905;42.668;23.364;2023-04-15T11:25:27;5.10;;;1.08;;
28625;SDS011;18905;42.668;23.364;2023-04-15T11:27:55;2.75;;;1.23;;
28625;SDS011;18905;42.668;23.364;2023-04-15T11:30:22;5.28;;;1.63;;
28625;SDS011;18905;42.668;23.364;2023-04-15T11:32:49;4.60;;;1.33;;
28625;SDS011;18905;42.668;23.364;2023-04-15T11:35:15;2.83;;;1.63;;
28625;SDS011;18905;42.668;23.364;2023-04-15T11:37:42;5.10;;;1.70;;
28625;SDS011;18905;42.668;23.364;2023-04-15T11:40:11;3.20;;;1.30;;
28625;SDS011;18905;42.668;23.364;2023-04-15T11:42:37;2.92;;;1.30;;
28625;SDS011;18905;42.668;23.364;2023-04-15T11:45:07;3.53;;;1.17;;
28625;SDS011;18905;42.668;23.364;2023-04-15T11:47:37;2.85;;;0.90;;
28625;SDS011;18905;42.668;23.364;2023-04-15T11:50:16;3.10;;;0.77;;
28625;SDS011;18905;42.668;23.364;2023-04-15T11:52:56;3.72;;;1.10;;
28625;SDS011;18905;42.668;23.364;2023-04-15T11:55:22;4.57;;;1.25;;
28625;SDS011;18905;42.668;23.364;2023-04-15T12:00:33;3.67;;;1.17;;
28625;SDS011;18905;42.668;23.364;2023-04-15T12:06:02;2.65;;;0.95;;
28625;SDS011;18905;42.668;23.364;2023-04-15T12:11:38;2.28;;;0.73;;
28625;SDS011;18905;42.668;23.364;2023-04-15T12:16:53;3.13;;;0.90;;
28625;SDS011;18905;42.668;23.364;2023-04-15T12:19:25;5.28;;;0.90;;
28625;SDS011;18905;42.668;23.364;2023-04-15T12:21:56;2.45;;;1.00;;
28625;SDS011;18905;42.668;23.364;2023-04-15T12:24:43;4.57;;;0.90;;
28625;SDS011;18905;42.668;23.364;2023-04-15T12:27:12;2.83;;;1.13;;
28625;SDS011;18905;42.668;23.364;2023-04-15T12:29:39;1.55;;;0.85;;
28625;SDS011;18905;42.668;23.364;2023-04-15T12:32:10;1.20;;;0.82;;
28625;SDS011;18905;42.668;23.364;2023-04-15T12:34:38;2.15;;;0.90;;
28625;SDS011;18905;42.668;23.364;2023-04-15T12:37:17;3.22;;;1.20;;
28625;SDS011;18905;42.668;23.364;2023-04-15T12:39:43;3.30;;;1.20;;
28625;SDS011;18905;42.668;23.364;2023-04-15T12:42:09;1.48;;;0.70;;
28625;SDS011;18905;42.668;23.364;2023-04-15T12:44:36;1.88;;;0.88;;
28625;SDS011;18905;42.668;23.364;2023-04-15T12:47:02;2.40;;;0.90;;
28625;SDS011;18905;42.668;23.364;2023-04-15T12:49:28;2.28;;;0.93;;
28625;SDS011;18905;42.668;23.364;2023-04-15T12:51:55;2.40;;;0.90;;
28625;SDS011;18905;42.668;23.364;2023-04-15T12:54:21;1.63;;;0.73;;
28625;SDS011;18905;42.668;23.364;2023-04-15T12:56:48;1.35;;;0.70;;
28625;SDS011;18905;42.668;23.364;2023-04-15T12:59:14;3.58;;;1.10;;
28625;SDS011;18905;42.668;23.364;2023-04-15T13:01:41;2.97;;;0.80;;
28625;SDS011;18905;42.668;23.364;2023-04-15T13:04:07;3.17;;;0.80;;
28625;SDS011;18905;42.668;23.364;2023-04-15T13:06:32;8.98;;;4.00;;
28625;SDS011;18905;42.668;23.364;2023-04-15T13:08:58;10.15;;;4.78;;
28625;SDS011;18905;42.668;23.364;2023-04-15T13:11:25;7.35;;;4.70;;
28625;SDS011;18905;42.668;23.364;2023-04-15T13:13:53;5.72;;;3.92;;
28625;SDS011;18905;42.668;23.364;2023-04-15T13:16:18;3.00;;;1.80;;
28625;SDS011;18905;42.668;23.364;2023-04-15T13:18:44;5.07;;;2.22;;
28625;SDS011;18905;42.668;23.364;2023-04-15T13:21:11;7.32;;;2.63;;
28625;SDS011;18905;42.668;23.364;2023-04-15T13:23:36;14.57;;;4.18;;
28625;SDS011;18905;42.668;23.364;2023-04-15T13:26:02;6.18;;;2.58;;
28625;SDS011;18905;42.668;23.364;2023-04-15T13:28:28;4.57;;;1.63;;
28625;SDS011;18905;42.668;23.364;2023-04-15T13:30:53;7.65;;;2.17;;
28625;SDS011;18905;42.668;23.364;2023-04-15T13:33:18;2.40;;;1.00;;
28625;SDS011;18905;42.668;23.364;2023-04-15T13:35:44;3.47;;;0.88;;
28625;SDS011;18905;42.668;23.364;2023-04-15T13:38:09;3.05;;;1.25;;
28625;SDS011;18905;42.668;23.364;2023-04-15T13:40:35;2.60;;;1.38;;
28625;SDS011;18905;42.668;23.364;2023-04-15T13:43:00;2.45;;;1.25;;
28625;SDS011;18905;42.668;23.364;2023-04-15T13:45:26;4.07;;;1.23;;
28625;SDS011;18905;42.668;23.364;2023-04-15T13:47:51;8.90;;;2.22;;
28625;SDS011;18905;42.668;23.364;2023-04-15T13:50:17;1.88;;;0.80;;
28625;SDS011;18905;42.668;23.364;2023-04-15T13:52:43;18.13;;;3.72;;
28625;SDS011;18905;42.668;23.364;2023-04-15T13:55:08;10.77;;;2.85;;
28625;SDS011;18905;42.668;23.364;2023-04-15T13:57:34;18.02;;;3.08;;
28625;SDS011;18905;42.668;23.364;2023-04-15T14:00:00;7.28;;;1.92;;
28625;SDS011;18905;42.668;23.364;2023-04-15T14:02:26;9.07;;;2.08;;
28625;SDS011;18905;42.668;23.364;2023-04-15T14:04:51;6.32;;;1.48;;
28625;SDS011;18905;42.668;23.364;2023-04-15T14:07:17;10.52;;;2.10;;
28625;SDS011;18905;42.668;23.364;2023-04-15T14:09:42;8.82;;;1.73;;
28625;SDS011;18905;42.668;23.364;2023-04-15T14:12:08;2.92;;;0.90;;
28625;SDS011;18905;42.668;23.364;2023-04-15T14:14:35;6.05;;;1.17;;
28625;SDS011;18905;42.668;23.364;2023-04-15T14:17:01;4.38;;;2.00;;
28625;SDS011;18905;42.668;23.364;2023-04-15T14:19:28;4.60;;;1.38;;
28625;SDS011;18905;42.668;23.364;2023-04-15T14:21:54;1.45;;;0.90;;
28625;SDS011;18905;42.668;23.364;2023-04-15T14:24:20;5.47;;;1.85;;
28625;SDS011;18905;42.668;23.364;2023-04-15T14:26:45;3.63;;;1.27;;
28625;SDS011;18905;42.668;23.364;2023-04-15T14:29:10;3.22;;;1.73;;
28625;SDS011;18905;42.668;23.364;2023-04-15T14:31:36;6.45;;;1.75;;
28625;SDS011;18905;42.668;23.364;2023-04-15T14:34:02;2.58;;;0.90;;
28625;SDS011;18905;42.668;23.364;2023-04-15T14:36:27;4.90;;;1.15;;
28625;SDS011;18905;42.668;23.364;2023-04-15T14:38:52;2.83;;;1.23;;
28625;SDS011;18905;42.668;23.364;2023-04-15T14:41:18;6.15;;;1.48;;
28625;SDS011;18905;42.668;23.364;2023-04-15T14:43:44;2.55;;;0.80;;
28625;SDS011;18905;42.668;23.364;2023-04-15T14:46:09;3.10;;;0.98;;
28625;SDS011;18905;42.668;23.364;2023-04-15T14:48:35;1.90;;;0.73;;
28625;SDS011;18905;42.668;23.364;2023-04-15T14:51:00;3.92;;;1.13;;
28625;SDS011;18905;42.668;23.364;2023-04-15T14:53:26;5.18;;;1.20;;
28625;SDS011;18905;42.668;23.364;2023-04-15T14:55:51;3.25;;;0.88;;
28625;SDS011;18905;42.668;23.364;2023-04-15T14:58:17;2.10;;;0.82;;
28625;SDS011;18905;42.668;23.364;2023-04-15T15:00:42;3.72;;;0.90;;
28625;SDS011;18905;42.668;23.364;2023-04-15T15:03:09;3.35;;;0.85;;